createdAt,value
2022-10-04T00:00:38.479Z,71.30
2022-10-04T00:03:18.579Z,71.33
2022-10-04T00:05:49.954Z,71.50
2022-10-04T00:08:32.953Z,71.39
2022-10-04T00:11:13.497Z,71.31
2022-10-04T00:13:41.522Z,71.45
2022-10-04T00:16:22.406Z,71.42
2022-10-04T00:18:49.235Z,71.55
2022-10-04T00:21:18.539Z,71.42
2022-10-04T00:23:46.441Z,71.45
2022-10-04T00:26:27.616Z,71.53
2022-10-04T00:28:55.510Z,71.63
2022-10-04T00:31:23.188Z,71.54
2022-10-04T00:33:52.959Z,71.52
2022-10-04T00:36:25.762Z,71.47
2022-10-04T00:39:04.956Z,71.53
2022-10-04T00:41:41.016Z,71.38
2022-10-04T00:44:34.751Z,71.63
2022-10-04T00:47:03.329Z,71.64
2022-10-04T00:49:33.415Z,71.69
2022-10-04T00:52:08.009Z,71.72
2022-10-04T00:54:41.398Z,71.52
2022-10-04T00:57:15.871Z,71.64
2022-10-04T00:59:49.023Z,71.67
2022-10-04T01:02:23.061Z,71.68
2022-10-04T01:05:11.000Z,71.70
2022-10-04T01:07:55.194Z,71.75
2022-10-04T01:10:39.282Z,71.58
2022-10-04T01:13:21.118Z,71.67
2022-10-04T01:16:12.366Z,71.58
2022-10-04T01:18:39.446Z,71.73
2022-10-04T01:21:18.581Z,71.71
2022-10-04T01:23:47.831Z,71.61
2022-10-04T01:26:26.854Z,71.75
2022-10-04T01:28:54.245Z,71.66
2022-10-04T01:31:21.344Z,71.77
2022-10-04T01:33:48.556Z,71.65
2022-10-04T01:36:22.226Z,71.71
2022-10-04T01:38:52.102Z,71.88
2022-10-04T01:41:22.090Z,71.62
2022-10-04T01:43:50.592Z,71.71
2022-10-04T01:46:21.304Z,71.44
2022-10-04T01:48:48.368Z,71.54
2022-10-04T01:51:20.146Z,71.36
2022-10-04T01:53:49.527Z,71.62
2022-10-04T01:56:21.653Z,71.75
2022-10-04T01:58:59.768Z,71.51
2022-10-04T02:01:31.662Z,71.58
2022-10-04T02:04:02.494Z,71.62
2022-10-04T02:06:30.264Z,71.55
2022-10-04T02:08:58.205Z,71.69
2022-10-04T02:11:30.197Z,71.72
2022-10-04T02:13:57.838Z,71.81
2022-10-04T02:16:26.375Z,71.72
2022-10-04T02:18:54.204Z,71.89
2022-10-04T02:21:22.041Z,71.70
2022-10-04T02:23:49.129Z,71.68
2022-10-04T02:26:16.144Z,71.67
2022-10-04T02:28:45.499Z,71.84
2022-10-04T02:31:30.942Z,71.75
2022-10-04T02:33:58.610Z,71.94
2022-10-04T02:36:28.001Z,71.87
2022-10-04T02:39:03.823Z,71.79
2022-10-04T02:41:33.095Z,71.56
2022-10-04T02:44:08.525Z,72.02
2022-10-04T02:46:47.010Z,72.03
2022-10-04T02:49:29.520Z,71.89
2022-10-04T02:52:06.105Z,71.76
2022-10-04T02:54:43.076Z,71.84
2022-10-04T02:57:19.295Z,72.01
2022-10-04T02:59:46.600Z,71.77
2022-10-04T03:02:30.115Z,71.98
2022-10-04T03:05:05.890Z,72.02
2022-10-04T03:07:33.574Z,72.02
2022-10-04T03:10:01.053Z,72.05
2022-10-04T03:12:27.832Z,71.83
2022-10-04T03:14:55.114Z,71.98
2022-10-04T03:17:22.173Z,72.11
2022-10-04T03:19:49.325Z,71.96
2022-10-04T03:22:16.865Z,71.96
2022-10-04T03:24:46.932Z,71.87
2022-10-04T03:27:20.608Z,72.00
2022-10-04T03:29:47.790Z,71.79
2022-10-04T03:32:17.036Z,72.07
2022-10-04T03:34:52.527Z,72.01
2022-10-04T03:37:21.536Z,72.03
2022-10-04T03:39:50.486Z,72.03
2022-10-04T03:42:19.250Z,72.03
2022-10-04T03:44:46.958Z,71.86
2022-10-04T03:47:25.832Z,72.02
2022-10-04T03:49:54.884Z,72.20
2022-10-04T03:52:26.612Z,71.84
2022-10-04T03:54:55.168Z,72.08
2022-10-04T03:57:22.718Z,71.92
2022-10-04T03:59:50.752Z,71.78
2022-10-04T04:02:34.190Z,71.97
2022-10-04T04:05:15.956Z,72.06
2022-10-04T04:07:46.208Z,72.17
2022-10-04T04:10:24.066Z,72.06
2022-10-04T04:13:07.335Z,72.13
2022-10-04T04:15:34.451Z,72.05
2022-10-04T04:18:04.359Z,71.90
2022-10-04T04:20:34.763Z,71.95
2022-10-04T04:23:10.982Z,72.07
2022-10-04T04:25:39.518Z,72.25
2022-10-04T04:28:25.485Z,71.98
2022-10-04T04:30:57.521Z,72.24
2022-10-04T04:33:29.429Z,72.14
2022-10-04T04:35:58.885Z,72.11
2022-10-04T04:38:26.254Z,72.19
2022-10-04T04:40:57.284Z,72.13
2022-10-04T04:43:27.781Z,72.07
2022-10-04T04:46:15.097Z,72.18
2022-10-04T04:48:45.063Z,72.20
2022-10-04T04:51:19.687Z,72.16
2022-10-04T04:53:47.658Z,72.10
2022-10-04T04:56:19.180Z,72.03
2022-10-04T04:58:47.779Z,72.23
2022-10-04T05:01:27.056Z,72.36
2022-10-04T05:04:17.505Z,72.10
2022-10-04T05:06:49.868Z,72.04
2022-10-04T05:09:30.318Z,72.02
2022-10-04T05:12:23.599Z,72.17
2022-10-04T05:14:52.189Z,72.06
2022-10-04T05:17:21.381Z,72.33
2022-10-04T05:19:48.428Z,72.17
2022-10-04T05:22:20.292Z,72.00
2022-10-04T05:24:49.028Z,72.04
2022-10-04T05:27:18.170Z,72.39
2022-10-04T05:30:19.826Z,72.30
2022-10-04T05:32:55.609Z,72.34
2022-10-04T05:35:22.786Z,72.25
2022-10-04T05:38:09.537Z,72.25
2022-10-04T05:40:47.250Z,72.21
2022-10-04T05:43:33.206Z,72.19
2022-10-04T05:46:21.165Z,72.10
2022-10-04T05:48:52.983Z,72.28
2022-10-04T05:51:20.734Z,72.15
2022-10-04T05:53:48.369Z,72.29
2022-10-04T05:56:30.384Z,72.34
2022-10-04T05:59:22.849Z,72.18
2022-10-04T06:02:20.194Z,72.26
2022-10-04T06:04:56.362Z,72.32
2022-10-04T06:07:30.366Z,72.52
2022-10-04T06:09:59.938Z,72.67
2022-10-04T06:12:52.014Z,72.76
2022-10-04T06:15:41.277Z,72.57
2022-10-04T06:18:33.148Z,72.66
2022-10-04T06:21:21.617Z,72.75
2022-10-04T06:23:57.691Z,72.90
2022-10-04T06:26:33.194Z,72.99
2022-10-04T06:29:15.628Z,72.81
2022-10-04T06:32:08.935Z,72.99
2022-10-04T06:34:51.815Z,72.84
2022-10-04T06:37:39.692Z,72.78
2022-10-04T06:40:28.177Z,73.02
2022-10-04T06:43:18.207Z,73.08
2022-10-04T06:46:03.775Z,73.15
2022-10-04T06:49:08.097Z,72.96
2022-10-04T06:52:04.045Z,72.93
2022-10-04T06:54:45.404Z,73.02
2022-10-04T06:57:40.164Z,73.16
2022-10-04T07:00:22.230Z,73.28
2022-10-04T07:02:53.280Z,73.26
2022-10-04T07:05:46.255Z,73.30
2022-10-04T07:08:36.120Z,73.63
2022-10-04T07:14:17.511Z,73.79
2022-10-04T07:17:03.087Z,73.95
2022-10-04T07:19:47.860Z,73.96
2022-10-04T07:22:38.033Z,73.93
2022-10-04T07:25:15.466Z,74.05
2022-10-04T07:28:15.777Z,74.02
2022-10-04T07:31:06.774Z,74.12
2022-10-04T07:33:36.466Z,74.19
2022-10-04T07:36:19.802Z,73.96
2022-10-04T07:39:01.896Z,73.99
2022-10-04T07:42:16.349Z,73.90
2022-10-04T07:44:54.933Z,73.80
2022-10-04T07:47:27.791Z,73.80
2022-10-04T07:50:29.254Z,73.92
2022-10-04T07:56:27.221Z,74.06
2022-10-04T07:59:23.251Z,73.86
2022-10-04T08:02:15.858Z,73.93
2022-10-04T08:05:48.114Z,73.76
2022-10-04T08:08:39.415Z,73.82
2022-10-04T08:11:43.234Z,73.78
2022-10-04T08:14:37.709Z,73.54
2022-10-04T08:17:15.335Z,73.35
2022-10-04T08:19:51.991Z,73.48
2022-10-04T08:22:19.202Z,73.15
2022-10-04T08:25:30.732Z,73.05
2022-10-04T08:28:44.638Z,73.15
2022-10-04T08:31:22.690Z,73.47
2022-10-04T08:33:52.634Z,73.53
2022-10-04T08:36:47.333Z,73.63
2022-10-04T08:39:22.749Z,73.86
2022-10-04T08:42:11.664Z,73.91
2022-10-04T08:45:01.886Z,73.96
2022-10-04T08:48:17.709Z,74.15
2022-10-04T08:51:12.653Z,74.06
2022-10-04T08:53:49.008Z,74.14
2022-10-04T08:56:51.572Z,74.12
2022-10-04T09:00:02.918Z,74.12
2022-10-04T09:02:30.114Z,74.18
2022-10-04T09:05:09.040Z,74.13
2022-10-04T09:08:17.296Z,73.91
2022-10-04T09:10:56.203Z,73.91
2022-10-04T09:13:51.022Z,73.85
2022-10-04T09:16:46.771Z,73.94
2022-10-04T09:19:33.604Z,73.73
2022-10-04T09:22:26.758Z,73.92
2022-10-04T09:25:15.347Z,73.92
2022-10-04T09:28:20.751Z,73.89
2022-10-04T09:31:04.771Z,73.90
2022-10-04T09:33:53.825Z,73.86
2022-10-04T09:36:54.496Z,73.68
2022-10-04T09:39:43.464Z,73.55
2022-10-04T09:42:32.065Z,73.46
2022-10-04T09:45:33.130Z,73.52
2022-10-04T09:48:28.133Z,73.67
2022-10-04T09:51:19.767Z,73.43
2022-10-04T09:54:17.576Z,73.59
2022-10-04T09:57:09.157Z,73.75
2022-10-04T10:00:03.236Z,73.66
2022-10-04T10:02:47.671Z,73.60
2022-10-04T10:05:50.888Z,73.61
2022-10-04T10:08:43.890Z,73.43
2022-10-04T10:11:56.519Z,73.39
2022-10-04T10:14:59.959Z,73.53
2022-10-04T10:18:02.197Z,73.52
2022-10-04T10:20:35.155Z,73.30
2022-10-04T10:23:51.474Z,73.40
2022-10-04T10:29:41.437Z,73.41
2022-10-04T10:36:34.653Z,73.32
2022-10-04T10:39:34.053Z,73.15
2022-10-04T10:42:48.702Z,73.13
2022-10-04T10:45:55.195Z,73.43
2022-10-04T10:48:33.550Z,73.26
2022-10-04T10:51:11.164Z,73.32
2022-10-04T10:53:53.147Z,73.19
2022-10-04T10:57:02.162Z,73.12
2022-10-04T10:59:49.938Z,73.33
2022-10-04T11:02:49.580Z,73.38
2022-10-04T11:05:35.082Z,73.29
2022-10-04T11:08:30.046Z,73.16
2022-10-04T11:11:06.618Z,73.14
2022-10-04T11:14:12.574Z,73.09
2022-10-04T11:17:14.335Z,73.16
2022-10-04T11:20:11.158Z,73.05
2022-10-04T11:22:50.063Z,73.03
2022-10-04T11:25:36.245Z,73.01
2022-10-04T11:28:26.668Z,73.04
2022-10-04T11:31:02.899Z,73.23
2022-10-04T11:33:39.535Z,73.32
2022-10-04T11:36:32.306Z,73.17
2022-10-04T11:39:14.379Z,73.28
2022-10-04T11:41:55.190Z,73.07
2022-10-04T11:44:34.330Z,73.33
2022-10-04T11:47:39.267Z,73.18
2022-10-04T11:50:23.904Z,73.34
2022-10-04T11:53:14.944Z,73.32
2022-10-04T11:56:37.808Z,73.30
2022-10-04T11:59:18.267Z,73.16
2022-10-04T12:02:09.239Z,73.29
2022-10-04T12:05:08.451Z,73.31
2022-10-04T12:08:03.199Z,73.11
2022-10-04T12:10:43.818Z,73.09
2022-10-04T12:13:44.664Z,72.99
2022-10-04T12:16:50.749Z,73.29
2022-10-04T12:19:42.939Z,72.95
2022-10-04T12:22:22.924Z,72.79
2022-10-04T12:25:44.162Z,73.10
2022-10-04T12:28:46.382Z,73.11
2022-10-04T12:31:54.799Z,73.04
2022-10-04T12:34:49.231Z,72.95
2022-10-04T12:37:25.965Z,72.96
2022-10-04T12:40:05.121Z,72.71
2022-10-04T12:42:54.367Z,72.91
2022-10-04T12:45:38.587Z,72.90
2022-10-04T12:48:17.555Z,72.63
2022-10-04T12:50:55.308Z,72.62
2022-10-04T12:53:37.098Z,72.66
2022-10-04T12:56:09.053Z,72.96
2022-10-04T12:58:55.970Z,72.54
2022-10-04T13:01:38.114Z,72.66
2022-10-04T13:04:29.206Z,72.64
2022-10-04T13:07:21.392Z,72.54
2022-10-04T13:10:24.575Z,72.71
2022-10-04T13:13:23.371Z,72.88
2022-10-04T13:18:53.234Z,72.51
2022-10-04T13:21:38.793Z,72.40
2022-10-04T13:24:20.649Z,72.28
2022-10-04T13:27:08.223Z,72.50
2022-10-04T13:29:49.361Z,72.74
2022-10-04T13:32:27.129Z,72.40
2022-10-04T13:35:02.842Z,72.44
2022-10-04T13:37:36.360Z,72.36
2022-10-04T13:40:26.841Z,72.16
2022-10-04T13:42:56.682Z,71.95
2022-10-04T13:45:45.310Z,71.98
2022-10-04T13:48:34.736Z,72.02
2022-10-04T13:51:24.380Z,72.04
2022-10-04T13:54:13.069Z,72.12
2022-10-04T13:56:58.745Z,71.71
2022-10-04T13:59:35.544Z,71.81
2022-10-04T14:02:15.865Z,71.71
2022-10-04T14:05:05.708Z,71.95
2022-10-04T14:07:41.175Z,71.70
2022-10-04T14:10:13.771Z,71.99
2022-10-04T14:13:18.136Z,71.96
2022-10-04T14:16:03.744Z,71.48
2022-10-04T14:18:52.421Z,71.85
2022-10-04T14:21:52.576Z,71.94
2022-10-04T14:24:49.876Z,71.53
2022-10-04T14:27:22.326Z,71.81
2022-10-04T14:30:24.518Z,71.82
2022-10-04T14:33:15.214Z,71.69
2022-10-04T14:36:10.042Z,71.83
2022-10-04T14:38:58.160Z,71.70
2022-10-04T14:42:02.638Z,72.04
2022-10-04T14:44:35.610Z,71.84
2022-10-04T14:47:25.675Z,72.14
2022-10-04T14:50:14.242Z,71.85
2022-10-04T14:53:00.806Z,71.81
2022-10-04T14:55:53.688Z,71.93
2022-10-04T14:58:41.182Z,71.99
2022-10-04T15:01:20.575Z,72.14
2022-10-04T15:04:14.052Z,72.26
2022-10-04T15:06:48.929Z,72.05
2022-10-04T15:09:27.059Z,72.06
2022-10-04T15:12:25.372Z,72.14
2022-10-04T15:15:13.314Z,71.98
2022-10-04T15:17:55.389Z,72.18
2022-10-04T15:20:25.156Z,72.36
2022-10-04T15:23:15.883Z,72.37
2022-10-04T15:25:42.554Z,72.60
2022-10-04T15:28:38.684Z,72.16
2022-10-04T15:31:20.721Z,72.17
2022-10-04T15:34:06.459Z,72.59
2022-10-04T15:36:57.672Z,72.65
2022-10-04T15:39:58.143Z,72.81
2022-10-04T15:42:38.496Z,72.84
2022-10-04T15:45:19.691Z,73.21
2022-10-04T15:48:05.237Z,73.06
2022-10-04T15:51:18.840Z,72.87
2022-10-04T15:54:09.511Z,72.95
2022-10-04T15:57:31.258Z,73.15
2022-10-04T16:00:21.223Z,73.01
2022-10-04T16:03:07.718Z,73.02
2022-10-04T16:05:42.504Z,73.29
2022-10-04T16:08:19.354Z,73.26
2022-10-04T16:11:14.134Z,73.00
2022-10-04T16:14:02.815Z,72.99
2022-10-04T16:16:48.513Z,73.31
2022-10-04T16:19:48.796Z,72.98
2022-10-04T16:22:28.166Z,72.96
2022-10-04T16:25:40.289Z,73.05
2022-10-04T16:28:39.475Z,73.22
2022-10-04T16:31:56.517Z,72.98
2022-10-04T16:34:33.601Z,73.11
2022-10-04T16:37:24.109Z,73.00
2022-10-04T16:40:05.559Z,73.01
2022-10-04T16:42:45.836Z,72.84
2022-10-04T16:45:49.741Z,72.82
2022-10-04T16:48:28.152Z,72.75
2022-10-04T16:51:13.320Z,72.87
2022-10-04T16:54:04.640Z,72.89
2022-10-04T16:56:35.065Z,72.73
2022-10-04T16:59:11.452Z,72.49
2022-10-04T17:01:56.737Z,72.81
2022-10-04T17:04:35.934Z,72.87
2022-10-04T17:07:24.274Z,72.52
2022-10-04T17:10:28.422Z,72.74
2022-10-04T17:13:14.374Z,72.67
2022-10-04T17:15:48.759Z,72.57
2022-10-04T17:18:19.612Z,72.42
2022-10-04T17:20:58.952Z,72.64
2022-10-04T17:23:44.449Z,72.63
2022-10-04T17:26:48.965Z,72.68
2022-10-04T17:29:15.790Z,72.78
2022-10-04T17:32:03.816Z,72.65
2022-10-04T17:34:30.511Z,72.87
2022-10-04T17:37:11.304Z,72.73
2022-10-04T17:40:13.510Z,72.67
2022-10-04T17:42:46.205Z,72.61
2022-10-04T17:45:37.128Z,72.88
2022-10-04T17:48:47.920Z,72.74
2022-10-04T17:51:53.123Z,72.89
2022-10-04T17:54:45.585Z,72.91
2022-10-04T17:57:25.051Z,72.79
2022-10-04T17:59:57.883Z,72.88
2022-10-04T18:02:45.855Z,72.87
2022-10-04T18:05:21.057Z,72.70
2022-10-04T18:07:54.201Z,72.82
2022-10-04T18:10:24.818Z,72.65
2022-10-04T18:13:03.679Z,72.53
2022-10-04T18:15:36.455Z,72.63
2022-10-04T18:18:21.577Z,72.38
2022-10-04T18:20:54.310Z,72.73
2022-10-04T18:23:27.229Z,72.86
2022-10-04T18:26:18.144Z,72.80
2022-10-04T18:28:47.404Z,72.80
2022-10-04T18:31:29.223Z,72.91
2022-10-04T18:34:29.229Z,72.87
2022-10-04T18:37:06.293Z,72.85
2022-10-04T18:39:44.714Z,72.94
2022-10-04T18:42:20.227Z,72.72
2022-10-04T18:44:59.048Z,72.76
2022-10-04T18:47:33.556Z,72.81
2022-10-04T18:50:04.839Z,72.91
2022-10-04T18:52:57.398Z,72.92
2022-10-04T18:55:46.006Z,72.84
2022-10-04T18:58:43.141Z,72.66
2022-10-04T19:02:06.666Z,72.72
2022-10-04T19:04:45.702Z,72.74
2022-10-04T19:07:58.381Z,72.93
2022-10-04T19:10:33.319Z,72.97
2022-10-04T19:13:18.584Z,72.62
2022-10-04T19:16:11.040Z,72.67
2022-10-04T19:19:06.730Z,72.75
2022-10-04T19:21:54.953Z,72.52
2022-10-04T19:24:33.929Z,72.65
2022-10-04T19:27:27.884Z,72.47
2022-10-04T19:30:12.917Z,72.46
2022-10-04T19:32:47.641Z,72.39
2022-10-04T19:35:26.633Z,72.53
2022-10-04T19:38:03.826Z,72.77
2022-10-04T19:40:48.497Z,72.62
2022-10-04T19:43:20.346Z,72.87
2022-10-04T19:46:11.692Z,72.60
2022-10-04T19:48:59.534Z,72.73
2022-10-04T19:51:38.428Z,73.01
2022-10-04T19:54:38.358Z,73.29
2022-10-04T19:57:12.373Z,73.25
2022-10-04T19:59:41.714Z,73.62
2022-10-04T20:02:17.625Z,73.16
2022-10-04T20:08:47.678Z,73.42
2022-10-04T20:11:18.946Z,73.53
2022-10-04T20:14:13.701Z,73.24
2022-10-04T20:16:46.912Z,73.28
2022-10-04T20:19:40.059Z,73.30
2022-10-04T20:22:12.859Z,73.30
2022-10-04T20:24:39.806Z,73.13
2022-10-04T20:27:10.819Z,73.04
2022-10-04T20:29:37.590Z,73.04
2022-10-04T20:32:08.538Z,73.23
2022-10-04T20:34:38.343Z,73.09
2022-10-04T20:37:09.245Z,73.10
2022-10-04T20:39:43.215Z,73.07
2022-10-04T20:42:19.707Z,72.82
2022-10-04T20:44:58.214Z,72.76
2022-10-04T20:47:49.112Z,72.90
2022-10-04T20:50:26.758Z,72.80
2022-10-04T20:52:57.265Z,72.89
2022-10-04T20:55:28.116Z,72.53
2022-10-04T20:58:00.674Z,72.70
2022-10-04T21:00:29.306Z,72.59
2022-10-04T21:03:13.156Z,72.84
2022-10-04T21:05:39.981Z,72.66
2022-10-04T21:08:24.257Z,72.63
2022-10-04T21:11:06.577Z,72.66
2022-10-04T21:14:00.233Z,72.66
2022-10-04T21:16:47.997Z,72.42
2022-10-04T21:19:33.515Z,72.48
2022-10-04T21:22:05.144Z,72.53
2022-10-04T21:24:35.703Z,72.46
2022-10-04T21:27:03.214Z,72.39
2022-10-04T21:29:30.087Z,72.20
2022-10-04T21:31:57.662Z,71.95
2022-10-04T21:34:51.471Z,72.14
2022-10-04T21:37:11.474Z,72.04
2022-10-04T21:39:38.263Z,72.31
2022-10-04T21:42:05.357Z,72.13
2022-10-04T21:44:32.159Z,72.36
2022-10-04T21:46:58.981Z,72.37
2022-10-04T21:49:26.198Z,72.57
2022-10-04T21:51:53.009Z,72.60
2022-10-04T21:54:19.831Z,72.79
2022-10-04T21:56:46.879Z,72.68
2022-10-04T21:59:14.065Z,72.92
2022-10-04T22:01:40.874Z,72.86
2022-10-04T22:04:07.654Z,72.84
2022-10-04T22:06:34.475Z,72.58
2022-10-04T22:09:01.250Z,72.83
2022-10-04T22:11:27.995Z,72.76
2022-10-04T22:13:54.719Z,72.84
2022-10-04T22:16:21.561Z,72.98
2022-10-04T22:18:48.352Z,72.91
2022-10-04T22:21:15.101Z,73.09
2022-10-04T22:23:43.189Z,73.02
2022-10-04T22:26:21.850Z,73.00
2022-10-04T22:28:53.589Z,73.07
2022-10-04T22:31:28.747Z,73.12
2022-10-04T22:33:56.210Z,73.11
2022-10-04T22:36:24.944Z,72.81
2022-10-04T22:39:08.858Z,72.64
2022-10-04T22:41:38.623Z,72.62
2022-10-04T22:44:16.769Z,72.70
2022-10-04T22:46:46.141Z,72.81
2022-10-04T22:49:15.810Z,72.64
2022-10-04T22:51:44.350Z,72.67
2022-10-04T22:54:17.728Z,72.58
2022-10-04T22:56:44.793Z,72.59
2022-10-04T22:59:13.515Z,72.56
2022-10-04T23:01:40.530Z,72.35
2022-10-04T23:04:14.140Z,72.39
2022-10-04T23:06:40.989Z,72.50
2022-10-04T23:09:09.109Z,72.49
2022-10-04T23:11:35.954Z,72.51
2022-10-04T23:14:02.803Z,72.74
2022-10-04T23:16:29.615Z,72.94
2022-10-04T23:19:02.651Z,72.83
2022-10-04T23:21:31.761Z,72.98
2022-10-04T23:24:01.947Z,72.90
2022-10-04T23:26:36.569Z,73.17
2022-10-04T23:29:06.385Z,73.10
2022-10-04T23:31:34.765Z,73.02
2022-10-04T23:34:01.577Z,73.06
2022-10-04T23:36:28.581Z,73.12
2022-10-04T23:38:59.562Z,73.16
2022-10-04T23:41:26.493Z,73.17
2022-10-04T23:43:53.245Z,73.04
2022-10-04T23:46:22.467Z,72.96
2022-10-04T23:48:49.218Z,73.04
2022-10-04T23:51:18.739Z,72.90
2022-10-04T23:53:46.800Z,72.97
2022-10-04T23:56:23.455Z,72.86
2022-10-04T23:58:52.390Z,72.72
